createdAt,value
2022-12-23T00:01:27.135Z,18.70
2022-12-23T00:03:57.638Z,21.00
2022-12-23T00:06:24.662Z,18.17
2022-12-23T00:08:58.332Z,18.02
2022-12-23T00:11:26.804Z,19.92
2022-12-23T00:14:18.186Z,18.73
2022-12-23T00:16:47.747Z,19.48
2022-12-23T00:19:14.877Z,21.30
2022-12-23T00:21:41.836Z,21.10
2022-12-23T00:24:08.755Z,18.50
2022-12-23T00:26:35.830Z,20.00
2022-12-23T00:29:02.980Z,19.38
2022-12-23T00:31:29.918Z,19.63
2022-12-23T00:33:56.778Z,20.17
2022-12-23T00:36:28.665Z,21.38
2022-12-23T00:39:33.977Z,21.98
2022-12-23T00:42:19.239Z,17.88
2022-12-23T00:44:46.160Z,22.73
2022-12-23T00:47:32.980Z,22.40
2022-12-23T00:49:59.936Z,21.20
2022-12-23T00:52:27.245Z,21.73
2022-12-23T00:54:54.108Z,21.38
2022-12-23T00:57:21.069Z,21.02
2022-12-23T00:59:47.919Z,19.83
2022-12-23T01:02:33.193Z,18.27
2022-12-23T01:05:18.473Z,22.23
2022-12-23T01:07:46.603Z,20.65
2022-12-23T01:10:13.687Z,19.98
2022-12-23T01:12:40.623Z,17.95
2022-12-23T01:15:07.998Z,18.13
2022-12-23T01:17:36.964Z,18.90
2022-12-23T01:20:04.288Z,18.40
2022-12-23T01:22:31.097Z,19.92
2022-12-23T01:24:57.939Z,20.35
2022-12-23T01:27:24.789Z,19.42
2022-12-23T01:29:51.715Z,19.73
2022-12-23T01:32:18.930Z,20.67
2022-12-23T01:34:45.848Z,18.45
2022-12-23T01:37:12.758Z,17.35
2022-12-23T01:39:39.595Z,19.80
2022-12-23T01:42:32.319Z,18.75
2022-12-23T01:45:01.804Z,19.98
2022-12-23T01:47:33.410Z,19.85
2022-12-23T01:50:03.234Z,19.23
2022-12-23T01:52:31.461Z,19.58
2022-12-23T01:54:58.429Z,21.02
2022-12-23T01:57:25.880Z,19.75
2022-12-23T02:00:11.908Z,20.13
2022-12-23T02:02:59.540Z,19.65
2022-12-23T02:05:27.220Z,18.13
2022-12-23T02:08:14.685Z,18.67
2022-12-23T02:11:00.469Z,18.75
2022-12-23T02:14:28.034Z,20.05
2022-12-23T02:17:04.497Z,20.48
2022-12-23T02:20:03.475Z,19.83
2022-12-23T02:23:10.180Z,20.17
2022-12-23T02:26:07.565Z,21.63
2022-12-23T02:29:05.550Z,20.00
2022-12-23T02:31:56.872Z,19.83
2022-12-23T02:34:40.808Z,18.73
2022-12-23T02:40:03.195Z,20.42
2022-12-23T02:42:41.163Z,19.73
2022-12-23T02:45:09.672Z,20.05
2022-12-23T02:47:49.583Z,21.63
2022-12-23T02:50:24.053Z,19.92
2022-12-23T02:52:53.781Z,21.75
2022-12-23T02:55:26.155Z,20.05
2022-12-23T02:57:55.498Z,22.25
2022-12-23T03:00:23.027Z,22.00
2022-12-23T03:02:50.164Z,20.25
2022-12-23T03:05:30.639Z,21.45
2022-12-23T03:08:22.898Z,21.48
2022-12-23T03:10:58.731Z,21.45
2022-12-23T03:13:34.347Z,22.27
2022-12-23T03:16:38.330Z,20.30
2022-12-23T03:19:14.443Z,20.85
2022-12-23T03:22:16.187Z,22.60
2022-12-23T03:25:04.429Z,24.42
2022-12-23T03:27:44.312Z,22.40
2022-12-23T03:30:20.561Z,19.98
2022-12-23T03:32:52.464Z,21.85
2022-12-23T03:35:24.280Z,23.20
2022-12-23T03:37:53.703Z,21.92
2022-12-23T03:40:33.980Z,22.65
2022-12-23T03:43:09.365Z,22.00
2022-12-23T03:45:43.350Z,21.73
2022-12-23T03:48:23.866Z,24.10
2022-12-23T03:50:56.053Z,24.33
2022-12-23T03:53:28.496Z,22.00
2022-12-23T03:56:03.658Z,21.23
2022-12-23T03:58:38.694Z,21.25
2022-12-23T04:01:24.533Z,22.30
2022-12-23T04:04:15.543Z,19.38
2022-12-23T04:06:55.026Z,20.92
2022-12-23T04:09:27.632Z,22.17
2022-12-23T04:11:55.054Z,23.60
2022-12-23T04:14:23.198Z,21.85
2022-12-23T04:16:54.698Z,21.15
2022-12-23T04:19:23.057Z,20.88
2022-12-23T04:21:49.938Z,20.67
2022-12-23T04:24:16.893Z,20.80
2022-12-23T04:26:43.816Z,20.80
2022-12-23T04:29:13.873Z,19.42
2022-12-23T04:31:41.126Z,18.92
2022-12-23T04:34:08.092Z,22.05
2022-12-23T04:36:34.948Z,19.20
2022-12-23T04:39:03.117Z,20.73
2022-12-23T04:41:29.922Z,17.90
2022-12-23T04:43:56.785Z,20.35
2022-12-23T04:46:23.660Z,16.00
2022-12-23T04:48:50.788Z,17.13
2022-12-23T04:51:17.607Z,20.25
2022-12-23T04:53:44.512Z,19.02
2022-12-23T04:56:11.452Z,20.08
2022-12-23T04:58:39.489Z,20.73
2022-12-23T05:01:10.803Z,22.27
2022-12-23T05:03:39.192Z,20.02
2022-12-23T05:06:06.397Z,19.70
2022-12-23T05:08:35.006Z,19.92
2022-12-23T05:11:01.959Z,22.15
2022-12-23T05:13:28.854Z,20.42
2022-12-23T05:15:56.044Z,20.35
2022-12-23T05:19:00.699Z,19.83
2022-12-23T05:21:27.505Z,21.80
2022-12-23T05:23:54.554Z,21.00
2022-12-23T05:26:21.474Z,20.63
2022-12-23T05:28:50.681Z,21.10
2022-12-23T05:31:17.715Z,20.73
2022-12-23T05:33:44.702Z,20.38
2022-12-23T05:36:12.472Z,21.75
2022-12-23T05:39:17.265Z,19.63
2022-12-23T05:41:44.128Z,21.10
2022-12-23T05:44:11.007Z,21.15
2022-12-23T05:46:37.943Z,21.70
2022-12-23T05:49:05.037Z,22.00
2022-12-23T05:51:31.913Z,22.38
2022-12-23T05:53:58.846Z,20.48
2022-12-23T05:56:25.723Z,19.92
2022-12-23T05:59:13.667Z,22.00
2022-12-23T06:01:40.627Z,23.02
2022-12-23T06:04:07.791Z,22.95
2022-12-23T06:06:34.815Z,20.80
2022-12-23T06:09:01.872Z,21.98
2022-12-23T06:11:28.793Z,23.15
2022-12-23T06:13:55.759Z,23.27
2022-12-23T06:16:23.364Z,22.10
2022-12-23T06:18:55.206Z,21.90
2022-12-23T06:21:22.453Z,22.55
2022-12-23T06:23:49.321Z,22.63
2022-12-23T06:26:16.217Z,22.92
2022-12-23T06:29:02.280Z,26.50
2022-12-23T06:31:29.350Z,26.30
2022-12-23T06:33:56.246Z,28.13
2022-12-23T06:36:23.099Z,27.77
2022-12-23T06:39:12.073Z,26.73
2022-12-23T06:41:38.962Z,29.02
2022-12-23T06:44:06.070Z,31.35
2022-12-23T06:46:32.936Z,31.23
2022-12-23T06:50:02.502Z,27.02
2022-12-23T06:52:29.409Z,30.92
2022-12-23T06:54:56.193Z,30.80
2022-12-23T06:57:23.073Z,32.17
2022-12-23T06:59:49.863Z,32.13
2022-12-23T07:02:17.068Z,30.27
2022-12-23T07:04:44.117Z,31.85
2022-12-23T07:07:11.043Z,28.92
2022-12-23T07:09:39.012Z,34.42
2022-12-23T07:12:06.120Z,37.42
2022-12-23T07:14:32.973Z,34.60
2022-12-23T07:16:59.884Z,31.95
2022-12-23T07:19:27.028Z,34.13
2022-12-23T07:21:53.862Z,30.13
2022-12-23T07:24:20.703Z,33.15
2022-12-23T07:26:47.643Z,34.65
2022-12-23T07:29:14.679Z,34.25
2022-12-23T07:31:41.635Z,31.08
2022-12-23T07:34:09.372Z,37.65
2022-12-23T07:36:36.221Z,38.45
2022-12-23T07:39:07.233Z,29.85
2022-12-23T07:41:34.174Z,32.20
2022-12-23T07:44:06.784Z,38.28
2022-12-23T07:46:33.694Z,35.22
2022-12-23T07:49:01.691Z,33.28
2022-12-23T07:51:28.577Z,34.45
2022-12-23T07:53:55.400Z,34.47
2022-12-23T07:56:22.289Z,36.35
2022-12-23T07:58:50.940Z,34.10
2022-12-23T08:01:18.973Z,31.80
2022-12-23T08:03:46.732Z,37.50
2022-12-23T08:06:15.278Z,42.10
2022-12-23T08:08:44.908Z,35.45
2022-12-23T08:11:13.181Z,38.85
2022-12-23T08:13:41.704Z,41.20
2022-12-23T08:16:10.006Z,34.53
2022-12-23T08:18:39.416Z,39.20
2022-12-23T08:21:08.955Z,40.95
2022-12-23T08:23:35.830Z,44.58
2022-12-23T08:26:09.417Z,35.17
2022-12-23T08:31:15.258Z,42.50
2022-12-23T08:33:44.805Z,37.67
2022-12-23T08:36:20.810Z,47.08
2022-12-23T08:38:53.684Z,40.30
2022-12-23T08:41:25.840Z,45.05
2022-12-23T08:43:53.250Z,42.30
2022-12-23T08:46:20.698Z,50.00
2022-12-23T08:48:49.630Z,34.97
2022-12-23T08:51:19.286Z,41.50
2022-12-23T08:53:47.104Z,43.83
2022-12-23T08:56:16.876Z,49.72
2022-12-23T08:58:46.965Z,62.83
2022-12-23T09:01:16.966Z,53.00
2022-12-23T09:03:45.310Z,33.53
2022-12-23T09:06:28.282Z,47.50
2022-12-23T09:08:58.774Z,35.60
2022-12-23T09:11:28.028Z,37.83
2022-12-23T09:13:56.153Z,35.63
2022-12-23T09:16:23.851Z,32.00
2022-12-23T09:18:51.977Z,35.63
2022-12-23T09:21:21.697Z,38.58
2022-12-23T09:23:49.134Z,41.00
2022-12-23T09:26:22.246Z,40.65
2022-12-23T09:28:49.610Z,53.65
2022-12-23T09:31:17.096Z,60.60
2022-12-23T09:33:48.357Z,46.53
2022-12-23T09:36:16.013Z,34.45
2022-12-23T09:38:44.718Z,37.45
2022-12-23T09:41:29.622Z,48.47
2022-12-23T09:44:21.359Z,32.28
2022-12-23T09:46:54.012Z,48.38
2022-12-23T09:49:27.219Z,35.40
2022-12-23T09:52:00.303Z,35.13
2022-12-23T09:54:33.219Z,35.25
2022-12-23T09:57:16.794Z,31.85
2022-12-23T10:00:14.074Z,34.13
2022-12-23T10:03:05.127Z,32.42
2022-12-23T10:06:01.296Z,33.67
2022-12-23T10:08:44.986Z,34.40
2022-12-23T10:11:35.550Z,33.42
2022-12-23T10:14:14.473Z,41.65
2022-12-23T10:16:45.603Z,33.65
2022-12-23T10:19:28.812Z,35.05
2022-12-23T10:22:06.327Z,32.13
2022-12-23T10:24:40.813Z,34.85
2022-12-23T10:27:13.778Z,32.40
2022-12-23T10:29:42.216Z,46.22
2022-12-23T10:32:33.363Z,36.15
2022-12-23T10:35:19.034Z,40.25
2022-12-23T10:37:50.652Z,33.40
2022-12-23T10:40:21.143Z,33.38
2022-12-23T10:42:51.011Z,34.72
2022-12-23T10:45:33.640Z,36.97
2022-12-23T10:48:38.085Z,43.63
2022-12-23T10:53:39.475Z,32.42
2022-12-23T10:56:07.397Z,33.60
2022-12-23T10:59:12.152Z,32.50
2022-12-23T11:01:41.190Z,39.42
2022-12-23T11:04:14.833Z,38.42
2022-12-23T11:09:38.227Z,41.35
2022-12-23T11:12:07.742Z,35.83
2022-12-23T11:14:49.645Z,44.00
2022-12-23T11:17:31.409Z,32.45
2022-12-23T11:20:10.532Z,34.80
2022-12-23T11:22:49.247Z,36.08
2022-12-23T11:25:31.266Z,31.48
2022-12-23T11:28:06.723Z,36.25
2022-12-23T11:30:55.088Z,45.65
2022-12-23T11:33:26.208Z,43.13
2022-12-23T11:36:14.892Z,37.75
2022-12-23T11:38:59.212Z,38.80
2022-12-23T11:41:29.714Z,37.78
2022-12-23T11:44:10.488Z,34.35
2022-12-23T11:46:37.537Z,31.10
2022-12-23T11:49:21.729Z,39.00
2022-12-23T11:52:13.819Z,41.92
2022-12-23T11:54:40.770Z,49.75
2022-12-23T11:57:19.085Z,39.90
2022-12-23T11:59:56.160Z,38.72
2022-12-23T12:02:26.324Z,38.08
2022-12-23T12:05:00.396Z,42.03
2022-12-23T12:07:27.997Z,35.97
2022-12-23T12:09:59.166Z,46.67
2022-12-23T12:12:27.739Z,38.95
2022-12-23T12:14:57.399Z,39.17
2022-12-23T12:17:47.077Z,40.80
2022-12-23T12:20:26.313Z,32.58
2022-12-23T12:22:59.167Z,36.13
2022-12-23T12:25:57.135Z,35.40
2022-12-23T12:28:29.416Z,31.00
2022-12-23T12:31:03.157Z,26.45
2022-12-23T12:33:35.823Z,27.98
2022-12-23T12:36:35.155Z,27.87
2022-12-23T12:39:02.031Z,25.67
2022-12-23T12:41:37.703Z,20.67
2022-12-23T12:44:35.565Z,26.60
2022-12-23T12:47:36.356Z,23.17
2022-12-23T12:50:06.555Z,24.42
2022-12-23T12:52:42.051Z,23.15
2022-12-23T12:55:32.396Z,25.00
2022-12-23T12:58:02.671Z,15.77
2022-12-23T13:00:39.632Z,14.30
2022-12-23T13:03:18.748Z,15.45
2022-12-23T13:06:24.137Z,15.18
2022-12-23T13:09:23.170Z,15.65
2022-12-23T13:12:35.099Z,15.00
2022-12-23T13:15:18.478Z,13.85
2022-12-23T13:18:04.015Z,12.38
2022-12-23T13:20:46.452Z,12.65
2022-12-23T13:23:43.961Z,12.10
2022-12-23T13:26:26.947Z,13.38
2022-12-23T13:29:03.552Z,12.52
2022-12-23T13:31:40.720Z,9.90
2022-12-23T13:34:27.798Z,13.27
2022-12-23T13:37:18.491Z,12.00
2022-12-23T13:40:16.822Z,11.10
2022-12-23T13:42:50.104Z,10.73
2022-12-23T13:45:19.775Z,11.43
2022-12-23T13:48:17.798Z,11.05
2022-12-23T13:50:53.377Z,9.75
2022-12-23T13:53:40.151Z,10.55
2022-12-23T13:56:34.973Z,10.73
2022-12-23T13:59:02.149Z,11.93
2022-12-23T14:01:35.290Z,9.95
2022-12-23T14:04:30.542Z,11.68
2022-12-23T14:07:07.194Z,11.10
2022-12-23T14:09:38.251Z,11.50
2022-12-23T14:12:18.782Z,11.93
2022-12-23T14:15:24.750Z,10.02
2022-12-23T14:18:28.191Z,9.93
2022-12-23T14:21:15.296Z,12.13
2022-12-23T14:24:00.820Z,10.70
2022-12-23T14:26:30.776Z,11.32
2022-12-23T14:29:32.433Z,10.60
2022-12-23T14:31:59.453Z,8.77
2022-12-23T14:34:30.328Z,9.82
2022-12-23T14:37:23.171Z,10.50
2022-12-23T14:39:51.024Z,11.40
2022-12-23T14:42:34.580Z,11.05
2022-12-23T14:45:41.637Z,10.90
2022-12-23T14:48:33.847Z,13.25
2022-12-23T14:51:09.796Z,12.05
2022-12-23T14:53:56.576Z,13.15
2022-12-23T14:56:40.379Z,14.05
2022-12-23T14:59:12.685Z,11.77
2022-12-23T15:01:46.364Z,13.05
2022-12-23T15:04:21.644Z,14.10
2022-12-23T15:06:53.418Z,13.45
2022-12-23T15:10:04.294Z,17.20
2022-12-23T15:12:41.025Z,14.35
2022-12-23T15:15:15.707Z,16.83
2022-12-23T15:17:44.183Z,16.02
2022-12-23T15:20:11.091Z,15.63
2022-12-23T15:22:39.604Z,20.63
2022-12-23T15:25:26.717Z,17.73
2022-12-23T15:28:01.504Z,19.63
2022-12-23T15:30:34.063Z,18.30
2022-12-23T15:33:06.401Z,19.55
2022-12-23T15:35:43.328Z,18.52
2022-12-23T15:38:16.154Z,16.15
2022-12-23T15:40:43.652Z,15.63
2022-12-23T15:43:20.387Z,18.55
2022-12-23T15:45:47.368Z,15.57
2022-12-23T15:48:32.391Z,15.05
2022-12-23T15:51:04.900Z,17.25
2022-12-23T15:53:38.105Z,14.63
2022-12-23T15:56:09.960Z,12.25
2022-12-23T15:58:41.647Z,14.45
2022-12-23T16:01:17.836Z,14.30
2022-12-23T16:03:52.096Z,15.82
2022-12-23T16:06:29.817Z,16.23
2022-12-23T16:09:17.204Z,14.95
2022-12-23T16:12:18.330Z,15.45
2022-12-23T16:14:53.539Z,15.60
2022-12-23T16:17:38.155Z,13.85
2022-12-23T16:20:20.263Z,14.52
2022-12-23T16:22:50.360Z,16.33
2022-12-23T16:25:24.587Z,16.60
2022-12-23T16:28:01.859Z,15.93
2022-12-23T16:30:35.671Z,15.55
2022-12-23T16:33:25.054Z,14.60
2022-12-23T16:35:54.620Z,16.73
2022-12-23T16:39:00.122Z,14.18
2022-12-23T16:41:27.093Z,15.32
2022-12-23T16:43:53.962Z,15.85
2022-12-23T16:46:23.344Z,15.68
2022-12-23T16:49:05.011Z,16.08
2022-12-23T16:51:34.236Z,15.15
2022-12-23T16:54:01.995Z,14.82
2022-12-23T16:56:35.112Z,16.17
2022-12-23T16:59:04.737Z,14.23
2022-12-23T17:01:34.962Z,15.40
2022-12-23T17:04:02.320Z,15.30
2022-12-23T17:06:29.452Z,15.75
2022-12-23T17:08:57.008Z,14.70
2022-12-23T17:11:35.006Z,14.15
2022-12-23T17:14:06.661Z,14.30
2022-12-23T17:16:36.122Z,14.07
2022-12-23T17:19:03.037Z,13.77
2022-12-23T17:21:32.449Z,12.30
2022-12-23T17:24:19.552Z,13.15
2022-12-23T17:26:46.424Z,14.25
2022-12-23T17:31:55.229Z,12.50
2022-12-23T17:34:24.632Z,13.23
2022-12-23T17:36:52.823Z,13.07
2022-12-23T17:39:21.477Z,14.25
2022-12-23T17:41:48.979Z,13.27
2022-12-23T17:44:17.235Z,11.93
2022-12-23T17:46:46.017Z,11.02
2022-12-23T17:49:14.193Z,11.63
2022-12-23T17:51:42.160Z,12.25
2022-12-23T17:54:23.777Z,13.55
2022-12-23T17:56:51.119Z,12.30
2022-12-23T17:59:19.141Z,10.95
2022-12-23T18:01:46.115Z,12.20
2022-12-23T18:04:13.018Z,13.43
2022-12-23T18:06:39.922Z,11.93
2022-12-23T18:09:06.884Z,13.02
2022-12-23T18:11:38.455Z,14.57
2022-12-23T18:14:05.333Z,13.02
2022-12-23T18:16:32.265Z,15.25
2022-12-23T18:18:59.456Z,15.15
2022-12-23T18:21:28.506Z,15.10
2022-12-23T18:23:58.778Z,16.08
2022-12-23T18:26:28.912Z,13.63
2022-12-23T18:28:56.077Z,15.77
2022-12-23T18:31:24.518Z,14.48
2022-12-23T18:33:52.128Z,14.23
2022-12-23T18:36:24.830Z,15.13
2022-12-23T18:38:52.676Z,14.65
2022-12-23T18:41:20.802Z,15.80
2022-12-23T18:43:47.729Z,15.43
2022-12-23T18:46:14.614Z,15.20
2022-12-23T18:48:43.193Z,15.63
2022-12-23T18:51:14.630Z,17.13
2022-12-23T18:53:43.412Z,15.95
2022-12-23T18:56:17.055Z,14.05
2022-12-23T18:58:44.257Z,15.88
2022-12-23T19:01:13.108Z,16.98
2022-12-23T19:03:40.806Z,14.30
2022-12-23T19:06:09.229Z,16.52
2022-12-23T19:08:37.604Z,14.40
2022-12-23T19:11:16.620Z,14.10
2022-12-23T19:13:44.547Z,15.88
2022-12-23T19:16:14.291Z,15.10
2022-12-23T19:18:41.571Z,16.67
2022-12-23T19:21:09.249Z,17.23
2022-12-23T19:23:36.404Z,17.17
2022-12-23T19:26:05.819Z,17.95
2022-12-23T19:28:33.605Z,16.60
2022-12-23T19:31:00.624Z,17.02
2022-12-23T19:33:27.554Z,18.95
2022-12-23T19:35:54.424Z,17.92
2022-12-23T19:38:40.583Z,18.92
2022-12-23T19:41:08.503Z,18.20
2022-12-23T19:43:37.041Z,17.38
2022-12-23T19:46:07.383Z,17.55
2022-12-23T19:48:55.249Z,17.00
2022-12-23T19:51:22.176Z,18.75
2022-12-23T19:53:51.130Z,17.80
2022-12-23T19:56:22.453Z,20.83
2022-12-23T19:58:53.167Z,19.95
2022-12-23T20:01:23.828Z,18.75
2022-12-23T20:03:51.937Z,18.35
2022-12-23T20:06:23.181Z,17.80
2022-12-23T20:08:56.338Z,17.42
2022-12-23T20:11:26.831Z,18.77
2022-12-23T20:13:55.431Z,17.40
2022-12-23T20:16:23.194Z,18.92
2022-12-23T20:18:51.282Z,18.63
2022-12-23T20:21:18.847Z,18.80
2022-12-23T20:23:45.854Z,19.33
2022-12-23T20:26:13.663Z,20.13
2022-12-23T20:28:40.824Z,19.92
2022-12-23T20:31:14.066Z,19.35
2022-12-23T20:33:42.597Z,22.15
2022-12-23T20:36:11.089Z,21.70
2022-12-23T20:38:40.004Z,21.83
2022-12-23T20:41:08.173Z,22.40
2022-12-23T20:43:35.260Z,21.23
2022-12-23T20:46:03.541Z,24.02
2022-12-23T20:48:34.400Z,24.73
2022-12-23T20:51:06.886Z,23.65
2022-12-23T20:53:34.475Z,23.80
2022-12-23T20:56:04.416Z,28.55
2022-12-23T20:58:52.847Z,28.02
2022-12-23T21:01:19.716Z,26.67
2022-12-23T21:03:46.727Z,25.77
2022-12-23T21:06:13.936Z,27.50
2022-12-23T21:08:43.320Z,27.10
2022-12-23T21:11:10.754Z,28.10
2022-12-23T21:13:40.251Z,29.40
2022-12-23T21:16:09.397Z,28.73
2022-12-23T21:18:40.436Z,26.40
2022-12-23T21:21:07.306Z,29.17
2022-12-23T21:23:40.448Z,26.42
2022-12-23T21:26:10.000Z,26.80
2022-12-23T21:28:39.724Z,27.85
2022-12-23T21:31:07.234Z,29.52
2022-12-23T21:33:39.488Z,30.15
2022-12-23T21:36:07.994Z,28.52
2022-12-23T21:38:39.017Z,28.55
2022-12-23T21:41:09.128Z,24.77
2022-12-23T21:43:36.521Z,30.13
2022-12-23T21:46:06.579Z,26.13
2022-12-23T21:48:35.175Z,26.85
2022-12-23T21:51:06.401Z,28.08
2022-12-23T21:53:35.017Z,24.05
2022-12-23T21:56:07.419Z,26.67
2022-12-23T21:58:34.733Z,26.73
2022-12-23T22:01:14.323Z,26.35
2022-12-23T22:03:42.574Z,26.75
2022-12-23T22:06:12.804Z,27.75
2022-12-23T22:08:41.044Z,29.38
2022-12-23T22:11:09.237Z,29.77
2022-12-23T22:13:36.741Z,29.20
2022-12-23T22:16:04.913Z,30.48
2022-12-23T22:18:32.993Z,28.95
2022-12-23T22:21:08.475Z,31.15
2022-12-23T22:23:36.031Z,7.75
2022-12-23T22:26:03.108Z,27.65
2022-12-23T22:28:32.486Z,30.15
2022-12-23T22:31:21.428Z,29.63
2022-12-23T22:33:48.244Z,31.63
2022-12-23T22:36:15.752Z,33.25
2022-12-23T22:38:43.475Z,30.80
2022-12-23T22:41:10.961Z,31.73
2022-12-23T22:43:38.265Z,32.30
2022-12-23T22:46:05.498Z,32.38
2022-12-23T22:48:51.807Z,28.67
2022-12-23T22:51:21.217Z,32.03
2022-12-23T22:53:48.338Z,32.67
2022-12-23T22:56:17.514Z,30.90
2022-12-23T22:58:44.611Z,31.85
2022-12-23T23:01:25.087Z,28.17
2022-12-23T23:03:57.290Z,31.05
2022-12-23T23:06:26.139Z,30.80
2022-12-23T23:09:13.630Z,30.27
2022-12-23T23:11:41.144Z,29.63
2022-12-23T23:14:07.968Z,28.75
2022-12-23T23:16:35.151Z,31.60
2022-12-23T23:19:03.842Z,30.33
2022-12-23T23:21:31.254Z,32.65
2022-12-23T23:23:58.146Z,29.75
2022-12-23T23:26:27.201Z,25.70
2022-12-23T23:28:55.541Z,27.08
2022-12-23T23:34:09.247Z,30.58
2022-12-23T23:36:36.413Z,33.55
2022-12-23T23:39:04.731Z,31.55
2022-12-23T23:41:31.864Z,28.25
2022-12-23T23:43:58.698Z,31.90
2022-12-23T23:46:25.562Z,34.08
2022-12-23T23:48:52.605Z,30.50
2022-12-23T23:51:19.587Z,36.08
2022-12-23T23:53:46.417Z,33.15
2022-12-23T23:56:13.522Z,32.20
2022-12-23T23:58:40.697Z,31.92
